Captain Ed — WDF6338 — position and weather

sailwx.info

Track history (hours):
 
Tides and Currents Weather Stations Pressure Air Temp Water Temp Dewpoint Dewpoint Depression Visibility Wind Speed Wind Dir Waves Ship Positions

Captain Ed

Owner: Norfolk Dredging Company, Chesapeake, VA. More information available from US FCC via Universal Licensing System and Coast Guard Vessel Documentation Center.

Last reported at 2017-Jun-27 06:46 UTC. Time now 2017-Jun-29 16:13 UTC.
Position N 36°43' W 076°13'.

Length 22 m; draft 3 m.

Type: Tug. MMSI: 367473210.

Date/timePositionNaut miles runAvg speedWind from/ knotsBaromVisibWave heightAir tempDewpointWater temp
2017-Jun-27 06:46N 36°43' W 076°13'1 3.1
2017-Jun-27 06:27N 36°43' W 076°14'1 1.3
2017-Jun-27 05:47N 36°43' W 076°15'0 1.7
2017-Jun-27 05:30N 36°44' W 076°15'2 4.1
2017-Jun-27 05:00N 36°44' W 076°18'2 3.7
2017-Jun-27 04:30N 36°46' W 076°18'1 1.6
2017-Jun-27 04:00N 36°47' W 076°18'2 3.1
2017-Jun-27 03:30N 36°48' W 076°18'2 4.9
2017-Jun-27 03:00N 36°51' W 076°18'3 6.6
2017-Jun-27 02:30N 36°53' W 076°20'0 0.0
2017-Jun-26 16:43N 36°53' W 076°20'2 7.3
2017-Jun-26 16:30N 36°52' W 076°19'3 6.6
2017-Jun-26 16:01N 36°49' W 076°17'1 2.2
2017-Jun-26 15:31N 36°48' W 076°18'0 0.0
2017-Jun-26 15:01N 36°48' W 076°18'0 0.0
2017-Jun-26 14:31N 36°48' W 076°18'0 0.0
2017-Jun-26 13:31N 36°48' W 076°18'0 0.0
2017-Jun-26 13:01N 36°48' W 076°18'0 0.0
2017-Jun-26 12:31N 36°48' W 076°18'0 0.0
2017-Jun-26 12:01N 36°48' W 076°18'0 0.0
2017-Jun-26 11:31N 36°48' W 076°18'0 0.0
2017-Jun-26 11:01N 36°48' W 076°18'0 0.0
2017-Jun-26 10:30N 36°48' W 076°18'0 0.0
2017-Jun-26 10:01N 36°48' W 076°18'1 2.3
2017-Jun-26 09:31N 36°47' W 076°18'2 4.0
2017-Jun-26 08:59N 36°45' W 076°18'0 0.0
2017-Jun-26 08:30N 36°45' W 076°18'0 0.0
2017-Jun-26 08:00N 36°45' W 076°18'0 0.0
2017-Jun-26 07:31N 36°45' W 076°18'0 0.0
2017-Jun-26 07:00N 36°45' W 076°18'0 0.0
2017-Jun-26 06:30N 36°45' W 076°18'0 0.0
2017-Jun-26 06:00N 36°45' W 076°18'0 0.0
2017-Jun-26 05:30N 36°45' W 076°18'0 0.0
2017-Jun-26 05:00N 36°45' W 076°18'0 0.0
2017-Jun-26 04:30N 36°45' W 076°18'0 0.0
2017-Jun-26 04:00N 36°45' W 076°18'0 0.0
2017-Jun-26 03:30N 36°45' W 076°18'0 0.0
2017-Jun-26 03:00N 36°45' W 076°18'0 0.0
2017-Jun-26 02:31N 36°45' W 076°18'0 0.0
2017-Jun-26 02:01N 36°45' W 076°18'0 0.0
2017-Jun-26 01:30N 36°45' W 076°18'0 0.0
2017-Jun-26 01:00N 36°45' W 076°18'0 0.0
2017-Jun-26 00:31N 36°45' W 076°18'0 0.0
2017-Jun-26 00:00N 36°45' W 076°18'0 0.0
2017-Jun-25 23:30N 36°45' W 076°18'2 4.8
2017-Jun-25 23:01N 36°47' W 076°18'3 6.6
2017-Jun-25 22:31N 36°50' W 076°18'4 0.1
2017-Jun-24 17:22N 36°53' W 076°20'0 0.6
2017-Jun-24 16:59N 36°53' W 076°20'0 1.0
2017-Jun-24 16:29N 36°54' W 076°20'1 3.0
2017-Jun-24 16:01N 36°52' W 076°20'0 0.0
2017-Jun-24 15:31N 36°52' W 076°20'2 3.3
2017-Jun-24 15:00N 36°54' W 076°20'0 0.0
2017-Jun-22 21:02N 36°54' W 076°20'0 4.1
2017-Jun-22 21:00N 36°54' W 076°20'1 2.9
2017-Jun-22 20:30N 36°52' W 076°20'0 0.1
2017-Jun-22 20:00N 36°52' W 076°20'0 0.1
2017-Jun-22 19:30N 36°52' W 076°20'0 0.0
2017-Jun-22 19:00N 36°52' W 076°20'0 0.0
2017-Jun-22 18:30N 36°52' W 076°20'0 0.1
2017-Jun-22 11:25N 36°53' W 076°20'1 0.1
2017-Jun-21 21:07N 36°54' W 076°20'1 3.8
2017-Jun-21 20:49N 36°53' W 076°20'0 1.4
2017-Jun-21 20:30N 36°52' W 076°20'0 0.1
2017-Jun-21 20:00N 36°52' W 076°20'0 0.1
2017-Jun-21 19:30N 36°52' W 076°20'0 0.0
2017-Jun-21 19:00N 36°52' W 076°20'3 6.4
2017-Jun-21 18:30N 36°50' W 076°18'3 6.9
2017-Jun-21 18:00N 36°47' W 076°18'2 3.9
2017-Jun-21 17:29N 36°45' W 076°18'0 0.0
2017-Jun-21 17:00N 36°45' W 076°18'0 0.0
2017-Jun-21 16:25N 36°45' W 076°18'0 0.0
2017-Jun-21 15:58N 36°45' W 076°18'3 5.6
2017-Jun-21 15:30N 36°47' W 076°18'4 7.1
2017-Jun-21 15:00N 36°51' W 076°17'1 0.9
2017-Jun-21 14:24N 36°50' W 076°17'0 0.1
2017-Jun-21 13:30N 36°50' W 076°17'0 0.8
2017-Jun-21 13:00N 36°51' W 076°17'1 1.9
2017-Jun-21 12:23N 36°51' W 076°18'1 1.9
2017-Jun-21 11:44N 36°52' W 076°19'1 2.6
2017-Jun-21 11:30N 36°52' W 076°20'1 0.1
2017-Jun-20 20:39N 36°53' W 076°20'1 4.7
2017-Jun-20 20:30N 36°53' W 076°20'2 4.6
2017-Jun-20 20:00N 36°51' W 076°18'2 4.7
2017-Jun-20 19:30N 36°49' W 076°17'0 0.3
2017-Jun-20 19:00N 36°49' W 076°17'4 7.0
2017-Jun-20 18:24N 36°52' W 076°20'0 0.3
2017-Jun-20 18:00N 36°52' W 076°20'3 6.5
2017-Jun-20 17:30N 36°50' W 076°18'3 6.4
2017-Jun-20 17:00N 36°47' W 076°18'2 4.0
2017-Jun-20 16:27N 36°45' W 076°18'0 0.1
2017-Jun-20 16:00N 36°45' W 076°18'0 0.0
2017-Jun-20 15:30N 36°45' W 076°18'0 0.0
2017-Jun-20 14:58N 36°45' W 076°18'0 0.0
2017-Jun-20 14:00N 36°45' W 076°18'0 0.0
2017-Jun-20 13:30N 36°45' W 076°18'0 0.0
2017-Jun-20 13:00N 36°45' W 076°18'0 0.0
2017-Jun-20 12:30N 36°45' W 076°18'0 0.0
2017-Jun-20 12:00N 36°45' W 076°18'0 0.0
2017-Jun-20 11:30N 36°45' W 076°18'0 0.0
2017-Jun-20 11:00N 36°45' W 076°18'0 0.0
2017-Jun-20 00:56N 36°45' W 076°18'1 1.7
2017-Jun-20 00:23N 36°44' W 076°17'1 3.4
2017-Jun-19 23:59N 36°44' W 076°15'1 1.0
2017-Jun-19 23:21N 36°43' W 076°15'0 1.3
2017-Jun-19 23:00N 36°43' W 076°14'  
Track history (hours):
 
Tides and Currents Weather Stations Pressure Air Temp Water Temp Dewpoint Dewpoint Depression Visibility Wind Speed Wind Dir Waves Ship Positions

Captain Ed

Owner: Norfolk Dredging Company, Chesapeake, VA. More information available from US FCC via Universal Licensing System and Coast Guard Vessel Documentation Center.

Last reported at 2017-Jun-27 06:46 UTC. Time now 2017-Jun-29 16:13 UTC.
Position N 36°43' W 076°13'.

Length 22 m; draft 3 m.

Type: Tug. MMSI: 367473210.

Date/timePositionNaut miles runAvg speedWind from/ knotsBaromVisibWave heightAir tempDewpointWater temp
2017-Jun-27 06:46N 36°43' W 076°13'1 3.1
2017-Jun-27 06:27N 36°43' W 076°14'1 1.3
2017-Jun-27 05:47N 36°43' W 076°15'0 1.7
2017-Jun-27 05:30N 36°44' W 076°15'2 4.1
2017-Jun-27 05:00N 36°44' W 076°18'2 3.7
2017-Jun-27 04:30N 36°46' W 076°18'1 1.6
2017-Jun-27 04:00N 36°47' W 076°18'2 3.1
2017-Jun-27 03:30N 36°48' W 076°18'2 4.9
2017-Jun-27 03:00N 36°51' W 076°18'3 6.6
2017-Jun-27 02:30N 36°53' W 076°20'0 0.0
2017-Jun-26 16:43N 36°53' W 076°20'2 7.3
2017-Jun-26 16:30N 36°52' W 076°19'3 6.6
2017-Jun-26 16:01N 36°49' W 076°17'1 2.2
2017-Jun-26 15:31N 36°48' W 076°18'0 0.0
2017-Jun-26 15:01N 36°48' W 076°18'0 0.0
2017-Jun-26 14:31N 36°48' W 076°18'0 0.0
2017-Jun-26 13:31N 36°48' W 076°18'0 0.0
2017-Jun-26 13:01N 36°48' W 076°18'0 0.0
2017-Jun-26 12:31N 36°48' W 076°18'0 0.0
2017-Jun-26 12:01N 36°48' W 076°18'0 0.0
2017-Jun-26 11:31N 36°48' W 076°18'0 0.0
2017-Jun-26 11:01N 36°48' W 076°18'0 0.0
2017-Jun-26 10:30N 36°48' W 076°18'0 0.0
2017-Jun-26 10:01N 36°48' W 076°18'1 2.3
2017-Jun-26 09:31N 36°47' W 076°18'2 4.0
2017-Jun-26 08:59N 36°45' W 076°18'0 0.0
2017-Jun-26 08:30N 36°45' W 076°18'0 0.0
2017-Jun-26 08:00N 36°45' W 076°18'0 0.0
2017-Jun-26 07:31N 36°45' W 076°18'0 0.0
2017-Jun-26 07:00N 36°45' W 076°18'0 0.0
2017-Jun-26 06:30N 36°45' W 076°18'0 0.0
2017-Jun-26 06:00N 36°45' W 076°18'0 0.0
2017-Jun-26 05:30N 36°45' W 076°18'0 0.0
2017-Jun-26 05:00N 36°45' W 076°18'0 0.0
2017-Jun-26 04:30N 36°45' W 076°18'0 0.0
2017-Jun-26 04:00N 36°45' W 076°18'0 0.0
2017-Jun-26 03:30N 36°45' W 076°18'0 0.0
2017-Jun-26 03:00N 36°45' W 076°18'0 0.0
2017-Jun-26 02:31N 36°45' W 076°18'0 0.0
2017-Jun-26 02:01N 36°45' W 076°18'0 0.0
2017-Jun-26 01:30N 36°45' W 076°18'0 0.0
2017-Jun-26 01:00N 36°45' W 076°18'0 0.0
2017-Jun-26 00:31N 36°45' W 076°18'0 0.0
2017-Jun-26 00:00N 36°45' W 076°18'0 0.0
2017-Jun-25 23:30N 36°45' W 076°18'2 4.8
2017-Jun-25 23:01N 36°47' W 076°18'3 6.6
2017-Jun-25 22:31N 36°50' W 076°18'4 0.1
2017-Jun-24 17:22N 36°53' W 076°20'0 0.6
2017-Jun-24 16:59N 36°53' W 076°20'0 1.0
2017-Jun-24 16:29N 36°54' W 076°20'1 3.0
2017-Jun-24 16:01N 36°52' W 076°20'0 0.0
2017-Jun-24 15:31N 36°52' W 076°20'2 3.3
2017-Jun-24 15:00N 36°54' W 076°20'0 0.0
2017-Jun-22 21:02N 36°54' W 076°20'0 4.1
2017-Jun-22 21:00N 36°54' W 076°20'1 2.9
2017-Jun-22 20:30N 36°52' W 076°20'0 0.1
2017-Jun-22 20:00N 36°52' W 076°20'0 0.1
2017-Jun-22 19:30N 36°52' W 076°20'0 0.0
2017-Jun-22 19:00N 36°52' W 076°20'0 0.0
2017-Jun-22 18:30N 36°52' W 076°20'0 0.1
2017-Jun-22 11:25N 36°53' W 076°20'1 0.1
2017-Jun-21 21:07N 36°54' W 076°20'1 3.8
2017-Jun-21 20:49N 36°53' W 076°20'0 1.4
2017-Jun-21 20:30N 36°52' W 076°20'0 0.1
2017-Jun-21 20:00N 36°52' W 076°20'0 0.1
2017-Jun-21 19:30N 36°52' W 076°20'0 0.0
2017-Jun-21 19:00N 36°52' W 076°20'3 6.4
2017-Jun-21 18:30N 36°50' W 076°18'3 6.9
2017-Jun-21 18:00N 36°47' W 076°18'2 3.9
2017-Jun-21 17:29N 36°45' W 076°18'0 0.0
2017-Jun-21 17:00N 36°45' W 076°18'0 0.0
2017-Jun-21 16:25N 36°45' W 076°18'0 0.0
2017-Jun-21 15:58N 36°45' W 076°18'3 5.6
2017-Jun-21 15:30N 36°47' W 076°18'4 7.1
2017-Jun-21 15:00N 36°51' W 076°17'1 0.9
2017-Jun-21 14:24N 36°50' W 076°17'0 0.1
2017-Jun-21 13:30N 36°50' W 076°17'0 0.8
2017-Jun-21 13:00N 36°51' W 076°17'1 1.9
2017-Jun-21 12:23N 36°51' W 076°18'1 1.9
2017-Jun-21 11:44N 36°52' W 076°19'1 2.6
2017-Jun-21 11:30N 36°52' W 076°20'1 0.1
2017-Jun-20 20:39N 36°53' W 076°20'1 4.7
2017-Jun-20 20:30N 36°53' W 076°20'2 4.6
2017-Jun-20 20:00N 36°51' W 076°18'2 4.7
2017-Jun-20 19:30N 36°49' W 076°17'0 0.3
2017-Jun-20 19:00N 36°49' W 076°17'4 7.0
2017-Jun-20 18:24N 36°52' W 076°20'0 0.3
2017-Jun-20 18:00N 36°52' W 076°20'3 6.5
2017-Jun-20 17:30N 36°50' W 076°18'3 6.4
2017-Jun-20 17:00N 36°47' W 076°18'2 4.0
2017-Jun-20 16:27N 36°45' W 076°18'0 0.1
2017-Jun-20 16:00N 36°45' W 076°18'0 0.0
2017-Jun-20 15:30N 36°45' W 076°18'0 0.0
2017-Jun-20 14:58N 36°45' W 076°18'0 0.0
2017-Jun-20 14:00N 36°45' W 076°18'0 0.0
2017-Jun-20 13:30N 36°45' W 076°18'0 0.0
2017-Jun-20 13:00N 36°45' W 076°18'0 0.0
2017-Jun-20 12:30N 36°45' W 076°18'0 0.0
2017-Jun-20 12:00N 36°45' W 076°18'0 0.0
2017-Jun-20 11:30N 36°45' W 076°18'0 0.0
2017-Jun-20 11:00N 36°45' W 076°18'0 0.0
2017-Jun-20 00:56N 36°45' W 076°18'1 1.7
2017-Jun-20 00:23N 36°44' W 076°17'1 3.4
2017-Jun-19 23:59N 36°44' W 076°15'1 1.0
2017-Jun-19 23:21N 36°43' W 076°15'0 1.3
2017-Jun-19 23:00N 36°43' W 076°14'  

Dump ship's entire track history